createdAt,value
2019-05-09T00:02:05.499Z,74.51
2019-05-09T00:04:33.980Z,74.34
2019-05-09T00:07:03.591Z,74.32
2019-05-09T00:09:33.614Z,74.40
2019-05-09T00:12:03.750Z,74.40
2019-05-09T00:14:34.183Z,74.63
2019-05-09T00:17:03.831Z,74.74
2019-05-09T00:19:33.401Z,74.86
2019-05-09T00:22:03.296Z,74.90
2019-05-09T00:24:33.233Z,74.95
2019-05-09T00:27:03.860Z,75.03
2019-05-09T00:29:40.175Z,75.06
2019-05-09T00:32:23.898Z,74.98
2019-05-09T00:35:14.105Z,75.13
2019-05-09T00:38:00.683Z,75.22
2019-05-09T00:40:29.150Z,75.27
2019-05-09T00:42:57.914Z,75.52
2019-05-09T00:45:40.185Z,75.43
2019-05-09T00:48:09.029Z,75.58
2019-05-09T00:50:37.803Z,75.47
2019-05-09T00:53:06.259Z,75.75
2019-05-09T00:55:34.735Z,75.60
2019-05-09T00:58:04.201Z,75.66
2019-05-09T01:00:33.382Z,75.76
2019-05-09T01:03:03.598Z,75.75
2019-05-09T01:05:34.157Z,76.47
2019-05-09T01:08:04.328Z,76.13
2019-05-09T01:10:34.225Z,75.79
2019-05-09T01:13:03.616Z,76.12
2019-05-09T01:15:33.453Z,75.81
2019-05-09T01:18:04.145Z,75.70
2019-05-09T01:20:33.339Z,75.76
2019-05-09T01:23:03.481Z,75.87
2019-05-09T01:25:33.509Z,76.24
2019-05-09T01:28:03.347Z,76.06
2019-05-09T01:30:33.581Z,76.17
2019-05-09T01:33:13.560Z,75.98
2019-05-09T01:35:43.372Z,76.31
2019-05-09T01:38:14.266Z,76.16
2019-05-09T01:40:43.895Z,76.00
2019-05-09T01:43:13.825Z,76.03
2019-05-09T01:45:43.156Z,75.90
2019-05-09T01:48:13.959Z,76.04
2019-05-09T01:50:43.230Z,75.99
2019-05-09T01:53:13.552Z,75.94
2019-05-09T01:56:00.643Z,75.99
2019-05-09T01:58:30.031Z,76.05
2019-05-09T02:00:58.537Z,76.15
2019-05-09T02:03:27.335Z,76.04
2019-05-09T02:05:56.127Z,76.16
2019-05-09T02:08:24.913Z,76.15
2019-05-09T02:10:54.292Z,76.24
2019-05-09T02:13:23.238Z,76.27
2019-05-09T02:16:29.149Z,76.33
2019-05-09T02:19:10.158Z,76.30
2019-05-09T02:21:38.638Z,76.37
2019-05-09T02:24:07.110Z,76.29
2019-05-09T02:26:35.582Z,76.33
2019-05-09T02:29:04.075Z,76.43
2019-05-09T02:31:35.366Z,76.44
2019-05-09T02:34:04.911Z,76.47
2019-05-09T02:36:32.926Z,76.50
2019-05-09T02:39:01.388Z,76.58
2019-05-09T02:41:29.879Z,76.69
2019-05-09T02:43:58.670Z,76.81
2019-05-09T02:46:33.137Z,76.83
2019-05-09T02:49:01.580Z,76.74
2019-05-09T02:51:30.043Z,76.92
2019-05-09T02:53:58.876Z,76.99
2019-05-09T02:56:29.449Z,77.04
2019-05-09T02:59:18.961Z,77.04
2019-05-09T03:01:59.896Z,76.92
2019-05-09T03:04:28.632Z,76.96
2019-05-09T03:06:59.692Z,77.12
2019-05-09T03:09:28.686Z,77.22
2019-05-09T03:11:59.059Z,77.13
2019-05-09T03:14:28.738Z,77.10
2019-05-09T03:16:58.793Z,77.24
2019-05-09T03:19:29.834Z,77.32
2019-05-09T03:22:02.370Z,77.15
2019-05-09T03:24:30.849Z,77.38
2019-05-09T03:27:03.636Z,77.44
2019-05-09T03:29:39.413Z,77.21
2019-05-09T03:32:09.172Z,77.51
2019-05-09T03:34:37.340Z,77.13
2019-05-09T03:37:05.782Z,77.12
2019-05-09T03:39:34.530Z,77.50
2019-05-09T03:42:03.020Z,77.23
2019-05-09T03:44:31.491Z,77.07
2019-05-09T03:47:13.175Z,76.96
2019-05-09T03:49:41.649Z,77.01
2019-05-09T03:52:10.108Z,77.27
2019-05-09T03:54:38.845Z,77.82
2019-05-09T03:57:24.507Z,77.31
2019-05-09T03:59:52.986Z,77.25
2019-05-09T04:02:21.464Z,77.23
2019-05-09T04:04:49.929Z,77.17
2019-05-09T04:07:18.736Z,77.21
2019-05-09T04:09:48.004Z,77.20
2019-05-09T04:12:18.127Z,77.23
2019-05-09T04:14:48.063Z,77.33
2019-05-09T04:17:18.085Z,77.33
2019-05-09T04:19:47.866Z,77.27
2019-05-09T04:22:18.248Z,77.23
2019-05-09T04:24:47.484Z,77.22
2019-05-09T04:27:20.568Z,77.21
2019-05-09T04:29:50.437Z,77.18
2019-05-09T04:32:19.244Z,77.20
2019-05-09T04:34:47.720Z,77.31
2019-05-09T04:37:18.001Z,77.39
2019-05-09T04:39:47.682Z,77.33
2019-05-09T04:42:18.433Z,77.26
2019-05-09T04:44:57.466Z,77.26
2019-05-09T04:47:23.179Z,77.42
2019-05-09T04:49:51.680Z,77.38
2019-05-09T04:52:20.710Z,77.24
2019-05-09T04:54:49.176Z,77.50
2019-05-09T04:57:18.028Z,77.08
2019-05-09T04:59:47.524Z,77.41
2019-05-09T05:02:34.379Z,77.90
2019-05-09T05:05:02.827Z,77.51
2019-05-09T05:07:31.318Z,77.59
2019-05-09T05:09:59.791Z,77.86
2019-05-09T05:12:28.278Z,77.82
2019-05-09T05:14:58.000Z,77.74
2019-05-09T05:17:30.274Z,77.53
2019-05-09T05:19:58.046Z,77.45
2019-05-09T05:22:32.138Z,77.79
2019-05-09T05:25:02.681Z,77.97
2019-05-09T05:27:31.155Z,77.89
2019-05-09T05:29:59.622Z,78.23
2019-05-09T05:32:40.094Z,78.14
2019-05-09T05:35:28.455Z,77.94
2019-05-09T05:37:58.103Z,78.07
2019-05-09T05:40:32.734Z,77.90
2019-05-09T05:42:58.545Z,77.79
2019-05-09T05:45:28.932Z,77.79
2019-05-09T05:48:01.254Z,78.19
2019-05-09T05:50:29.699Z,77.99
2019-05-09T05:52:58.415Z,77.99
2019-05-09T05:55:27.542Z,77.94
2019-05-09T05:57:57.923Z,78.18
2019-05-09T06:00:28.676Z,77.97
2019-05-09T06:02:58.612Z,78.13
2019-05-09T06:05:27.795Z,78.03
2019-05-09T06:07:57.689Z,77.97
2019-05-09T06:10:28.790Z,78.19
2019-05-09T06:12:57.525Z,78.27
2019-05-09T06:15:28.621Z,78.14
2019-05-09T06:17:57.933Z,78.14
2019-05-09T06:20:28.140Z,78.20
2019-05-09T06:22:58.212Z,78.18
2019-05-09T06:25:30.435Z,78.13
2019-05-09T06:27:58.464Z,78.20
2019-05-09T06:30:28.606Z,78.26
2019-05-09T06:32:58.067Z,78.53
2019-05-09T06:35:28.261Z,78.47
2019-05-09T06:37:58.766Z,78.51
2019-05-09T06:40:28.755Z,78.44
2019-05-09T06:42:59.590Z,78.59
2019-05-09T06:45:49.853Z,78.54
2019-05-09T06:48:18.618Z,78.81
2019-05-09T06:50:48.323Z,78.51
2019-05-09T06:53:18.146Z,78.48
2019-05-09T06:55:47.602Z,78.62
2019-05-09T06:58:31.345Z,79.02
2019-05-09T07:01:07.776Z,78.90
2019-05-09T07:03:37.500Z,78.73
2019-05-09T07:06:10.388Z,78.50
2019-05-09T07:08:58.607Z,78.60
2019-05-09T07:11:27.613Z,78.65
2019-05-09T07:13:57.913Z,78.42
2019-05-09T07:16:27.699Z,78.67
2019-05-09T07:18:57.871Z,78.54
2019-05-09T07:21:45.525Z,78.61
2019-05-09T07:24:13.979Z,78.68
2019-05-09T07:26:42.467Z,78.48
2019-05-09T07:29:10.935Z,78.52
2019-05-09T07:31:44.023Z,78.53
2019-05-09T07:34:21.993Z,78.63
2019-05-09T07:36:50.444Z,78.56
2019-05-09T07:39:18.908Z,78.55
2019-05-09T07:41:47.923Z,78.55
2019-05-09T07:44:18.265Z,78.61
2019-05-09T07:46:52.866Z,78.66
2019-05-09T07:49:21.363Z,78.48
2019-05-09T07:51:49.919Z,78.60
2019-05-09T07:54:25.118Z,78.38
2019-05-09T07:56:48.687Z,78.29
2019-05-09T07:59:18.138Z,78.13
2019-05-09T08:01:48.713Z,78.13
2019-05-09T08:04:18.301Z,78.14
2019-05-09T08:06:48.639Z,78.06
2019-05-09T08:09:18.662Z,77.84
2019-05-09T08:11:48.325Z,77.71
2019-05-09T08:14:17.670Z,77.67
2019-05-09T08:16:47.553Z,77.61
2019-05-09T08:19:18.124Z,77.56
2019-05-09T08:21:47.988Z,77.59
2019-05-09T08:24:18.332Z,77.64
2019-05-09T08:26:47.819Z,77.70
2019-05-09T08:29:17.774Z,77.58
2019-05-09T08:31:48.542Z,77.61
2019-05-09T08:34:18.686Z,77.50
2019-05-09T08:36:47.729Z,77.41
2019-05-09T08:39:18.409Z,77.34
2019-05-09T08:41:48.515Z,77.23
2019-05-09T08:44:18.676Z,77.22
2019-05-09T08:46:48.121Z,77.17
2019-05-09T08:49:18.271Z,77.07
2019-05-09T08:52:05.939Z,77.14
2019-05-09T08:54:38.112Z,77.12
2019-05-09T08:57:07.660Z,77.10
2019-05-09T08:59:38.296Z,76.80
2019-05-09T09:02:16.552Z,76.80
2019-05-09T09:04:38.323Z,76.60
2019-05-09T09:07:08.435Z,76.70
2019-05-09T09:09:37.914Z,76.48
2019-05-09T09:12:25.173Z,76.58
2019-05-09T09:14:38.498Z,76.58
2019-05-09T09:17:07.908Z,76.52
2019-05-09T09:19:38.589Z,76.32
2019-05-09T09:22:08.879Z,76.26
2019-05-09T09:24:37.550Z,76.10
2019-05-09T09:27:07.697Z,75.79
2019-05-09T09:29:37.955Z,75.62
2019-05-09T09:32:08.336Z,75.82
2019-05-09T09:34:37.890Z,75.96
2019-05-09T09:37:11.376Z,75.75
2019-05-09T09:39:44.453Z,75.61
2019-05-09T09:42:09.028Z,75.55
2019-05-09T09:44:39.352Z,75.43
2019-05-09T09:47:08.376Z,75.44
2019-05-09T09:49:38.406Z,75.38
2019-05-09T09:52:08.619Z,74.93
2019-05-09T09:54:38.569Z,75.34
2019-05-09T09:57:09.629Z,75.07
2019-05-09T09:59:53.675Z,75.38
2019-05-09T10:02:27.774Z,75.25
2019-05-09T10:04:56.105Z,74.94
2019-05-09T10:07:24.568Z,75.27
2019-05-09T10:09:53.049Z,74.92
2019-05-09T10:12:21.573Z,74.98
2019-05-09T10:15:12.396Z,75.20
2019-05-09T10:17:49.681Z,75.03
2019-05-09T10:20:43.064Z,75.12
2019-05-09T10:23:18.123Z,74.93
2019-05-09T10:25:41.979Z,74.59
2019-05-09T10:28:10.525Z,74.41
2019-05-09T10:30:38.987Z,74.04
2019-05-09T10:33:09.167Z,73.83
2019-05-09T10:35:39.203Z,73.34
2019-05-09T10:38:08.880Z,73.24
2019-05-09T10:40:40.110Z,73.18
2019-05-09T10:43:39.009Z,73.12
2019-05-09T10:46:24.008Z,73.18
2019-05-09T10:48:58.753Z,73.47
2019-05-09T10:51:27.362Z,73.47
2019-05-09T10:53:55.819Z,73.60
2019-05-09T10:56:24.289Z,73.06
2019-05-09T10:58:53.084Z,73.27
2019-05-09T11:01:21.556Z,72.50
2019-05-09T11:03:50.025Z,72.29
2019-05-09T11:06:18.776Z,71.80
2019-05-09T11:08:48.140Z,71.91
2019-05-09T11:11:18.138Z,72.08
2019-05-09T11:13:48.176Z,72.14
2019-05-09T11:16:18.352Z,72.02
2019-05-09T11:18:48.258Z,71.54
2019-05-09T11:21:19.642Z,71.21
2019-05-09T11:23:48.805Z,70.25
2019-05-09T11:26:18.251Z,71.29
2019-05-09T11:28:46.932Z,70.50
2019-05-09T11:31:18.010Z,70.56
2019-05-09T11:33:48.137Z,70.69
2019-05-09T11:36:20.831Z,70.77
2019-05-09T11:38:49.066Z,70.72
2019-05-09T11:41:19.106Z,71.11
2019-05-09T11:43:48.509Z,71.24
2019-05-09T11:46:18.203Z,71.23
2019-05-09T11:48:46.701Z,70.58
2019-05-09T11:51:18.258Z,70.25
2019-05-09T11:53:45.418Z,69.89
2019-05-09T11:56:13.903Z,69.67
2019-05-09T11:58:42.362Z,69.32
2019-05-09T12:01:10.875Z,69.30
2019-05-09T12:03:39.333Z,69.00
2019-05-09T12:06:08.150Z,68.04
2019-05-09T12:08:38.766Z,67.91
2019-05-09T12:11:08.366Z,67.23
2019-05-09T12:13:38.035Z,65.66
2019-05-09T12:16:06.703Z,65.33
2019-05-09T12:18:37.683Z,64.85
2019-05-09T12:21:05.582Z,65.56
2019-05-09T12:23:34.033Z,65.53
2019-05-09T12:26:02.740Z,65.99
2019-05-09T12:28:31.207Z,65.41
2019-05-09T12:30:59.666Z,65.35
2019-05-09T12:33:29.618Z,65.11
2019-05-09T12:35:59.355Z,64.59
2019-05-09T12:38:27.954Z,64.90
2019-05-09T12:41:00.312Z,64.29
2019-05-09T12:43:28.330Z,64.00
2019-05-09T12:45:57.845Z,63.63
2019-05-09T12:48:27.875Z,62.79
2019-05-09T12:50:58.561Z,60.86
2019-05-09T12:53:28.040Z,62.52
2019-05-09T12:55:59.877Z,61.94
2019-05-09T12:58:28.877Z,62.12
2019-05-09T13:00:58.627Z,62.63
2019-05-09T13:03:27.771Z,62.40
2019-05-09T13:05:57.483Z,60.61
2019-05-09T13:08:27.815Z,60.97
2019-05-09T13:10:58.327Z,62.08
2019-05-09T13:13:29.115Z,62.69
2019-05-09T13:16:10.115Z,62.49
2019-05-09T13:18:54.591Z,62.65
2019-05-09T13:21:23.052Z,61.98
2019-05-09T13:23:52.505Z,61.04
2019-05-09T13:26:21.091Z,61.44
2019-05-09T13:28:49.551Z,61.84
2019-05-09T13:31:18.348Z,61.09
2019-05-09T13:33:48.765Z,61.07
2019-05-09T13:36:18.910Z,60.06
2019-05-09T13:38:57.579Z,59.85
2019-05-09T13:41:17.762Z,60.01
2019-05-09T13:43:56.840Z,60.92
2019-05-09T13:46:17.964Z,60.63
2019-05-09T13:49:05.761Z,60.57
2019-05-09T13:51:18.392Z,60.41
2019-05-09T13:53:48.373Z,59.92
2019-05-09T13:56:17.805Z,60.04
2019-05-09T13:58:48.715Z,60.27
2019-05-09T14:01:17.766Z,60.42
2019-05-09T14:03:49.038Z,59.98
2019-05-09T14:06:16.840Z,59.61
2019-05-09T14:08:48.619Z,59.66
2019-05-09T14:11:15.517Z,59.72
2019-05-09T14:13:43.974Z,59.95
2019-05-09T14:16:19.434Z,59.85
2019-05-09T14:18:43.002Z,59.84
2019-05-09T14:21:11.485Z,59.75
2019-05-09T14:23:51.022Z,59.99
2019-05-09T14:26:10.164Z,59.82
2019-05-09T14:28:38.626Z,59.06
2019-05-09T14:31:07.619Z,59.79
2019-05-09T14:33:38.775Z,59.96
2019-05-09T14:36:08.289Z,59.66
2019-05-09T14:38:39.109Z,59.80
2019-05-09T14:41:07.816Z,59.42
2019-05-09T14:43:39.324Z,59.07
2019-05-09T14:46:08.162Z,58.73
2019-05-09T14:48:37.030Z,58.88
2019-05-09T14:51:07.657Z,58.77
2019-05-09T14:53:35.942Z,58.57
2019-05-09T14:56:04.417Z,58.34
2019-05-09T14:58:32.896Z,58.75
2019-05-09T15:01:01.368Z,58.51
2019-05-09T15:03:29.877Z,58.53
2019-05-09T15:05:58.318Z,58.29
2019-05-09T15:08:27.942Z,57.33
2019-05-09T15:10:58.272Z,56.67
2019-05-09T15:13:28.641Z,56.73
2019-05-09T15:15:57.919Z,56.82
2019-05-09T15:18:26.467Z,56.86
2019-05-09T15:20:54.949Z,57.39
2019-05-09T15:23:23.428Z,57.26
2019-05-09T15:25:51.945Z,56.86
2019-05-09T15:28:20.661Z,55.79
2019-05-09T15:30:49.466Z,55.72
2019-05-09T15:33:17.935Z,55.35
2019-05-09T15:35:48.661Z,55.77
2019-05-09T15:38:18.141Z,55.66
2019-05-09T15:40:48.169Z,56.10
2019-05-09T15:43:18.629Z,56.34
2019-05-09T15:46:08.333Z,56.93
2019-05-09T15:48:38.080Z,56.52
2019-05-09T15:51:07.541Z,56.63
2019-05-09T15:53:38.124Z,56.67
2019-05-09T15:56:08.017Z,56.47
2019-05-09T15:58:38.547Z,56.51
2019-05-09T16:01:08.229Z,56.37
2019-05-09T16:03:38.206Z,56.44
2019-05-09T16:06:09.013Z,56.32
2019-05-09T16:08:38.226Z,56.12
2019-05-09T16:11:08.697Z,55.94
2019-05-09T16:13:37.352Z,55.98
2019-05-09T16:16:08.798Z,56.01
2019-05-09T16:18:36.086Z,56.16
2019-05-09T16:21:04.544Z,56.39
2019-05-09T16:23:32.998Z,56.48
2019-05-09T16:26:01.492Z,56.52
2019-05-09T16:28:29.953Z,56.63
2019-05-09T16:30:58.638Z,56.74
2019-05-09T16:33:27.884Z,56.84
2019-05-09T16:35:56.412Z,56.94
2019-05-09T16:38:38.807Z,57.04
2019-05-09T16:40:55.277Z,57.12
2019-05-09T16:43:23.734Z,57.23
2019-05-09T16:45:52.478Z,57.34
2019-05-09T16:48:21.253Z,57.38
2019-05-09T16:51:00.704Z,57.34
2019-05-09T16:53:19.946Z,57.38
2019-05-09T16:55:48.411Z,57.42
2019-05-09T16:58:18.602Z,57.47
2019-05-09T17:00:50.234Z,57.52
2019-05-09T17:03:18.690Z,57.56
2019-05-09T17:05:47.163Z,57.59
2019-05-09T17:08:17.766Z,57.68
2019-05-09T17:10:48.394Z,57.62
2019-05-09T17:13:18.452Z,57.69
2019-05-09T17:15:46.237Z,57.73
2019-05-09T17:18:14.715Z,57.80
2019-05-09T17:20:50.412Z,57.77
2019-05-09T17:23:21.374Z,57.75
2019-05-09T17:25:49.818Z,57.83
2019-05-09T17:28:18.307Z,57.86
2019-05-09T17:30:49.251Z,57.85
2019-05-09T17:33:17.249Z,57.67
2019-05-09T17:35:48.110Z,57.63
2019-05-09T17:38:18.094Z,57.56
2019-05-09T17:40:48.227Z,57.74
2019-05-09T17:43:18.236Z,57.89
2019-05-09T17:45:47.772Z,57.99
2019-05-09T17:48:18.289Z,58.08
2019-05-09T17:50:46.661Z,58.21
2019-05-09T17:53:15.136Z,58.34
2019-05-09T17:55:43.601Z,58.44
2019-05-09T17:58:25.856Z,58.56
2019-05-09T18:00:42.574Z,58.74
2019-05-09T18:03:11.317Z,58.77
2019-05-09T18:05:39.797Z,58.87
2019-05-09T18:08:08.296Z,58.99
2019-05-09T18:10:38.038Z,59.02
2019-05-09T18:13:07.929Z,59.06
2019-05-09T18:15:37.729Z,59.07
2019-05-09T18:18:06.632Z,59.22
2019-05-09T18:20:37.737Z,59.26
2019-05-09T18:23:05.263Z,59.33
2019-05-09T18:25:33.732Z,59.40
2019-05-09T18:28:02.198Z,59.56
2019-05-09T18:30:30.675Z,59.65
2019-05-09T18:33:10.089Z,59.72
2019-05-09T18:35:38.802Z,59.78
2019-05-09T18:38:08.014Z,59.92
2019-05-09T18:40:36.694Z,60.03
2019-05-09T18:43:07.566Z,60.15
2019-05-09T18:45:37.550Z,60.16
2019-05-09T18:48:08.272Z,60.26
2019-05-09T18:50:36.149Z,60.50
2019-05-09T18:53:04.634Z,60.69
2019-05-09T18:55:33.094Z,60.67
2019-05-09T18:58:01.555Z,60.73
2019-05-09T19:00:30.061Z,60.87
2019-05-09T19:02:58.525Z,60.85
2019-05-09T19:05:26.985Z,61.04
2019-05-09T19:07:55.675Z,61.12
2019-05-09T19:10:24.151Z,61.15
2019-05-09T19:12:52.611Z,61.28
2019-05-09T19:15:28.150Z,61.24
2019-05-09T19:18:23.478Z,61.16
2019-05-09T19:21:00.073Z,61.14
2019-05-09T19:23:28.550Z,61.17
2019-05-09T19:25:58.646Z,61.06
2019-05-09T19:28:27.389Z,61.01
2019-05-09T19:30:55.824Z,60.89
2019-05-09T19:33:24.281Z,60.87
2019-05-09T19:35:52.763Z,61.15
2019-05-09T19:38:21.828Z,61.29
2019-05-09T19:40:50.594Z,61.32
2019-05-09T19:43:19.107Z,61.49
2019-05-09T19:45:47.557Z,61.55
2019-05-09T19:48:16.019Z,61.49
2019-05-09T19:50:44.464Z,61.58
2019-05-09T19:53:12.985Z,61.63
2019-05-09T19:55:41.814Z,61.65
2019-05-09T19:58:10.266Z,61.76
2019-05-09T20:00:38.974Z,61.75
2019-05-09T20:03:07.742Z,61.72
2019-05-09T20:05:36.225Z,61.79
2019-05-09T20:08:04.735Z,61.92
2019-05-09T20:10:51.374Z,62.07
2019-05-09T20:13:30.993Z,62.20
2019-05-09T20:15:59.453Z,62.25
2019-05-09T20:18:27.924Z,62.39
2019-05-09T20:20:56.386Z,62.72
2019-05-09T20:23:24.889Z,62.79
2019-05-09T20:25:53.319Z,62.85
2019-05-09T20:28:21.788Z,62.84
2019-05-09T20:30:50.257Z,62.93
2019-05-09T20:33:18.716Z,63.12
2019-05-09T20:35:47.163Z,63.18
2019-05-09T20:38:16.140Z,63.24
2019-05-09T20:40:44.799Z,63.29
2019-05-09T20:43:13.456Z,63.37
2019-05-09T20:45:42.126Z,63.37
2019-05-09T20:48:10.795Z,63.34
2019-05-09T20:50:39.429Z,63.44
2019-05-09T20:53:09.953Z,63.53
2019-05-09T20:55:38.448Z,63.66
2019-05-09T20:58:07.163Z,63.73
2019-05-09T21:00:35.812Z,63.74
2019-05-09T21:03:07.915Z,63.76
2019-05-09T21:05:34.846Z,63.80
2019-05-09T21:08:03.514Z,63.84
2019-05-09T21:10:32.174Z,63.85
2019-05-09T21:13:00.837Z,63.73
2019-05-09T21:15:29.470Z,63.77
2019-05-09T21:17:58.107Z,63.75
2019-05-09T21:20:26.765Z,63.71
2019-05-09T21:22:55.416Z,63.60
2019-05-09T21:25:24.074Z,63.66
2019-05-09T21:27:52.785Z,63.63
2019-05-09T21:30:21.794Z,63.73
2019-05-09T21:32:50.502Z,63.67
2019-05-09T21:35:19.248Z,63.71
2019-05-09T21:37:47.742Z,63.71
2019-05-09T21:40:16.219Z,63.75
2019-05-09T21:42:44.713Z,63.93
2019-05-09T21:45:13.199Z,63.95
2019-05-09T21:47:41.680Z,64.14
2019-05-09T21:50:10.176Z,64.17
2019-05-09T21:52:38.881Z,64.19
2019-05-09T21:55:07.359Z,64.31
2019-05-09T21:57:35.812Z,64.37
2019-05-09T22:00:05.490Z,64.38
2019-05-09T22:02:33.923Z,64.35
2019-05-09T22:05:02.533Z,64.46
2019-05-09T22:07:30.949Z,64.71
2019-05-09T22:09:59.430Z,64.57
2019-05-09T22:12:27.885Z,64.51
2019-05-09T22:14:56.591Z,64.58
2019-05-09T22:17:35.647Z,64.71
2019-05-09T22:20:04.607Z,64.92
2019-05-09T22:22:34.970Z,65.03
2019-05-09T22:25:03.429Z,64.99
2019-05-09T22:27:31.911Z,64.97
2019-05-09T22:30:00.665Z,64.93
2019-05-09T22:32:29.150Z,65.06
2019-05-09T22:34:57.648Z,65.03
2019-05-09T22:37:26.141Z,65.25
2019-05-09T22:39:54.637Z,65.32
2019-05-09T22:42:23.093Z,65.20
2019-05-09T22:44:51.564Z,65.14
2019-05-09T22:47:20.341Z,65.23
2019-05-09T22:49:52.338Z,65.41
2019-05-09T22:52:19.021Z,65.50
2019-05-09T22:54:47.485Z,65.60
2019-05-09T22:57:15.989Z,65.66
2019-05-09T22:59:44.840Z,65.65
2019-05-09T23:02:13.350Z,65.67
2019-05-09T23:04:41.832Z,65.69
2019-05-09T23:07:10.324Z,65.80
2019-05-09T23:09:38.801Z,65.84
2019-05-09T23:12:07.287Z,65.87
2019-05-09T23:14:35.763Z,65.83
2019-05-09T23:17:04.417Z,65.74
2019-05-09T23:19:32.879Z,65.78
2019-05-09T23:22:01.349Z,65.81
2019-05-09T23:24:31.714Z,66.00
2019-05-09T23:27:00.195Z,65.98
2019-05-09T23:29:28.662Z,66.03
2019-05-09T23:32:08.725Z,66.14
2019-05-09T23:34:37.195Z,66.22
2019-05-09T23:37:05.677Z,66.22
2019-05-09T23:39:40.706Z,66.27
2019-05-09T23:42:09.198Z,66.39
2019-05-09T23:44:37.687Z,66.69
2019-05-09T23:47:06.186Z,66.58
2019-05-09T23:49:34.987Z,66.63
2019-05-09T23:52:03.453Z,66.78
2019-05-09T23:54:49.948Z,66.94
2019-05-09T23:57:36.014Z,67.19
